GRX weather

Federico Garcia Lorca Airport
Granada, AndalucĂ­a, Spain

Public forecast

Using degrees Celsius for public forecast. Weather courtesy of forecast.io.

METAR (pilot weather report)

Retrieved 2019/04/25 11:30 UTC (6 minutes ago):

LEGR 251130Z 28011KT 250V310 9999 BKN044 OVC050 13/07 Q1018

TAF (pilot weather forecast)

Retrieved 2019/04/25 09:28 UTC (2 hours ago):

TAF LEGR 250800Z 2509/2609 27010KT 9999 SCT020 BKN030 TX17/2515Z TN04/2603Z PROB40 TEMPO 2509/2513 4000 RA BKN010 BKN020 BECMG 2519/2522 VRB02KT